sensor_id;sensor_type;location;lat;lon;timestamp;P1;durP1;ratioP1;P2;durP2;ratioP2
56770;SDS011;42641;59.794;17.616;2022-09-09T00:01:43;1.60;;;1.50;;
56770;SDS011;42641;59.794;17.616;2022-09-09T00:04:35;2.33;;;1.50;;
56770;SDS011;42641;59.794;17.616;2022-09-09T00:07:21;1.63;;;1.53;;
56770;SDS011;42641;59.794;17.616;2022-09-09T00:21:14;1.70;;;1.60;;
56770;SDS011;42641;59.794;17.616;2022-09-09T00:23:55;1.70;;;1.60;;
56770;SDS011;42641;59.794;17.616;2022-09-09T00:26:29;2.20;;;1.53;;
56770;SDS011;42641;59.794;17.616;2022-09-09T00:31:34;1.70;;;1.60;;
56770;SDS011;42641;59.794;17.616;2022-09-09T00:34:05;1.90;;;1.80;;
56770;SDS011;42641;59.794;17.616;2022-09-09T00:36:36;1.83;;;1.60;;
56770;SDS011;42641;59.794;17.616;2022-09-09T00:39:04;1.70;;;1.60;;
56770;SDS011;42641;59.794;17.616;2022-09-09T00:44:30;1.50;;;1.40;;
56770;SDS011;42641;59.794;17.616;2022-09-09T00:50:05;1.63;;;1.53;;
56770;SDS011;42641;59.794;17.616;2022-09-09T00:55:27;1.40;;;1.30;;
56770;SDS011;42641;59.794;17.616;2022-09-09T00:58:07;1.30;;;1.20;;
56770;SDS011;42641;59.794;17.616;2022-09-09T01:06:10;1.47;;;1.37;;
56770;SDS011;42641;59.794;17.616;2022-09-09T01:08:43;1.60;;;1.50;;
56770;SDS011;42641;59.794;17.616;2022-09-09T01:13:52;3.37;;;1.30;;
56770;SDS011;42641;59.794;17.616;2022-09-09T01:16:26;1.40;;;1.30;;
56770;SDS011;42641;59.794;17.616;2022-09-09T01:18:55;1.40;;;1.30;;
56770;SDS011;42641;59.794;17.616;2022-09-09T01:21:42;1.40;;;1.30;;
56770;SDS011;42641;59.794;17.616;2022-09-09T01:27:18;0.93;;;0.93;;
56770;SDS011;42641;59.794;17.616;2022-09-09T01:29:46;1.20;;;1.20;;
56770;SDS011;42641;59.794;17.616;2022-09-09T01:35:11;1.27;;;1.17;;
56770;SDS011;42641;59.794;17.616;2022-09-09T01:37:48;1.20;;;1.10;;
56770;SDS011;42641;59.794;17.616;2022-09-09T01:40:15;1.10;;;1.10;;
56770;SDS011;42641;59.794;17.616;2022-09-09T01:42:41;1.23;;;1.13;;
56770;SDS011;42641;59.794;17.616;2022-09-09T01:45:08;1.53;;;1.43;;
56770;SDS011;42641;59.794;17.616;2022-09-09T01:47:35;1.30;;;1.20;;
56770;SDS011;42641;59.794;17.616;2022-09-09T01:50:09;1.87;;;1.30;;
56770;SDS011;42641;59.794;17.616;2022-09-09T01:52:41;1.63;;;1.53;;
56770;SDS011;42641;59.794;17.616;2022-09-09T01:55:11;2.20;;;1.50;;
56770;SDS011;42641;59.794;17.616;2022-09-09T01:57:46;1.40;;;1.30;;
56770;SDS011;42641;59.794;17.616;2022-09-09T02:00:22;1.60;;;1.50;;
56770;SDS011;42641;59.794;17.616;2022-09-09T02:08:29;2.03;;;1.33;;
56770;SDS011;42641;59.794;17.616;2022-09-09T02:14:02;1.27;;;1.23;;
56770;SDS011;42641;59.794;17.616;2022-09-09T02:16:39;1.63;;;1.43;;
56770;SDS011;42641;59.794;17.616;2022-09-09T02:19:18;1.60;;;1.50;;
56770;SDS011;42641;59.794;17.616;2022-09-09T02:22:04;1.87;;;1.43;;
56770;SDS011;42641;59.794;17.616;2022-09-09T02:24:33;1.40;;;1.30;;
56770;SDS011;42641;59.794;17.616;2022-09-09T02:27:12;3.37;;;1.40;;
56770;SDS011;42641;59.794;17.616;2022-09-09T02:29:42;1.40;;;1.30;;
56770;SDS011;42641;59.794;17.616;2022-09-09T02:32:11;1.83;;;1.40;;
56770;SDS011;42641;59.794;17.616;2022-09-09T02:34:47;1.40;;;1.30;;
56770;SDS011;42641;59.794;17.616;2022-09-09T02:37:23;1.83;;;1.40;;
56770;SDS011;42641;59.794;17.616;2022-09-09T02:39:55;1.23;;;1.20;;
56770;SDS011;42641;59.794;17.616;2022-09-09T02:42:22;1.40;;;1.30;;
56770;SDS011;42641;59.794;17.616;2022-09-09T02:44:51;1.87;;;1.33;;
56770;SDS011;42641;59.794;17.616;2022-09-09T02:52:46;1.30;;;1.20;;
56770;SDS011;42641;59.794;17.616;2022-09-09T02:55:54;1.30;;;1.20;;
56770;SDS011;42641;59.794;17.616;2022-09-09T02:58:25;1.40;;;1.30;;
56770;SDS011;42641;59.794;17.616;2022-09-09T03:00:57;1.37;;;1.30;;
56770;SDS011;42641;59.794;17.616;2022-09-09T03:03:25;1.40;;;1.30;;
56770;SDS011;42641;59.794;17.616;2022-09-09T03:05:52;1.50;;;1.40;;
56770;SDS011;42641;59.794;17.616;2022-09-09T03:08:18;1.30;;;1.20;;
56770;SDS011;42641;59.794;17.616;2022-09-09T03:10:45;1.20;;;1.20;;
56770;SDS011;42641;59.794;17.616;2022-09-09T03:13:14;1.30;;;1.30;;
56770;SDS011;42641;59.794;17.616;2022-09-09T03:15:41;1.10;;;1.00;;
56770;SDS011;42641;59.794;17.616;2022-09-09T03:18:12;2.00;;;1.30;;
56770;SDS011;42641;59.794;17.616;2022-09-09T03:20:39;1.20;;;1.20;;
56770;SDS011;42641;59.794;17.616;2022-09-09T03:23:07;1.33;;;1.20;;
56770;SDS011;42641;59.794;17.616;2022-09-09T03:25:35;1.53;;;1.43;;
56770;SDS011;42641;59.794;17.616;2022-09-09T03:28:01;1.60;;;1.30;;
56770;SDS011;42641;59.794;17.616;2022-09-09T03:30:28;3.33;;;2.23;;
56770;SDS011;42641;59.794;17.616;2022-09-09T03:32:55;1.40;;;1.30;;
56770;SDS011;42641;59.794;17.616;2022-09-09T03:35:26;1.47;;;1.37;;
56770;SDS011;42641;59.794;17.616;2022-09-09T03:37:52;1.70;;;1.40;;
56770;SDS011;42641;59.794;17.616;2022-09-09T03:40:21;1.40;;;1.30;;
56770;SDS011;42641;59.794;17.616;2022-09-09T03:42:47;1.20;;;1.20;;
56770;SDS011;42641;59.794;17.616;2022-09-09T03:45:15;1.27;;;1.20;;
56770;SDS011;42641;59.794;17.616;2022-09-09T03:47:42;1.10;;;1.10;;
56770;SDS011;42641;59.794;17.616;2022-09-09T03:50:09;2.17;;;1.33;;
56770;SDS011;42641;59.794;17.616;2022-09-09T03:52:41;1.63;;;1.30;;
56770;SDS011;42641;59.794;17.616;2022-09-09T03:55:15;2.10;;;1.30;;
56770;SDS011;42641;59.794;17.616;2022-09-09T03:57:42;1.47;;;1.37;;
56770;SDS011;42641;59.794;17.616;2022-09-09T04:00:09;1.43;;;1.30;;
56770;SDS011;42641;59.794;17.616;2022-09-09T04:02:50;1.53;;;1.43;;
56770;SDS011;42641;59.794;17.616;2022-09-09T04:05:19;2.03;;;1.27;;
56770;SDS011;42641;59.794;17.616;2022-09-09T04:07:47;1.40;;;1.30;;
56770;SDS011;42641;59.794;17.616;2022-09-09T04:10:14;1.93;;;1.30;;
56770;SDS011;42641;59.794;17.616;2022-09-09T04:12:42;1.37;;;1.27;;
56770;SDS011;42641;59.794;17.616;2022-09-09T04:15:09;1.40;;;1.30;;
56770;SDS011;42641;59.794;17.616;2022-09-09T04:17:38;3.23;;;1.50;;
56770;SDS011;42641;59.794;17.616;2022-09-09T04:20:04;2.10;;;1.70;;
56770;SDS011;42641;59.794;17.616;2022-09-09T04:22:32;2.60;;;1.40;;
56770;SDS011;42641;59.794;17.616;2022-09-09T04:25:00;1.47;;;1.37;;
56770;SDS011;42641;59.794;17.616;2022-09-09T04:27:27;1.30;;;1.20;;
56770;SDS011;42641;59.794;17.616;2022-09-09T04:29:55;1.27;;;1.17;;
56770;SDS011;42641;59.794;17.616;2022-09-09T04:32:25;1.83;;;1.50;;
56770;SDS011;42641;59.794;17.616;2022-09-09T04:34:52;2.03;;;1.37;;
56770;SDS011;42641;59.794;17.616;2022-09-09T04:37:19;1.30;;;1.20;;
56770;SDS011;42641;59.794;17.616;2022-09-09T04:39:45;2.70;;;1.57;;
56770;SDS011;42641;59.794;17.616;2022-09-09T04:42:12;1.43;;;1.33;;
56770;SDS011;42641;59.794;17.616;2022-09-09T04:44:38;1.80;;;1.30;;
56770;SDS011;42641;59.794;17.616;2022-09-09T04:47:07;1.40;;;1.30;;
56770;SDS011;42641;59.794;17.616;2022-09-09T04:49:33;1.97;;;1.30;;
56770;SDS011;42641;59.794;17.616;2022-09-09T04:52:00;1.17;;;1.07;;
56770;SDS011;42641;59.794;17.616;2022-09-09T04:54:26;2.43;;;1.50;;
56770;SDS011;42641;59.794;17.616;2022-09-09T04:56:54;1.30;;;1.20;;
56770;SDS011;42641;59.794;17.616;2022-09-09T04:59:21;1.63;;;1.40;;
56770;SDS011;42641;59.794;17.616;2022-09-09T05:01:52;1.40;;;1.30;;
56770;SDS011;42641;59.794;17.616;2022-09-09T05:04:21;1.40;;;1.30;;
56770;SDS011;42641;59.794;17.616;2022-09-09T05:06:47;1.20;;;1.10;;
56770;SDS011;42641;59.794;17.616;2022-09-09T05:09:14;2.23;;;1.20;;
56770;SDS011;42641;59.794;17.616;2022-09-09T05:11:40;3.53;;;1.20;;
56770;SDS011;42641;59.794;17.616;2022-09-09T05:14:14;1.37;;;1.27;;
56770;SDS011;42641;59.794;17.616;2022-09-09T05:16:40;1.53;;;1.10;;
56770;SDS011;42641;59.794;17.616;2022-09-09T05:19:08;1.83;;;1.17;;
56770;SDS011;42641;59.794;17.616;2022-09-09T05:21:43;1.47;;;1.37;;
56770;SDS011;42641;59.794;17.616;2022-09-09T05:24:09;1.17;;;1.00;;
56770;SDS011;42641;59.794;17.616;2022-09-09T05:26:37;1.40;;;1.30;;
56770;SDS011;42641;59.794;17.616;2022-09-09T05:29:03;1.30;;;1.10;;
56770;SDS011;42641;59.794;17.616;2022-09-09T05:31:30;1.03;;;1.03;;
56770;SDS011;42641;59.794;17.616;2022-09-09T05:33:59;2.50;;;1.30;;
56770;SDS011;42641;59.794;17.616;2022-09-09T05:36:25;1.30;;;1.20;;
56770;SDS011;42641;59.794;17.616;2022-09-09T05:38:55;1.40;;;1.30;;
56770;SDS011;42641;59.794;17.616;2022-09-09T05:41:23;1.17;;;1.07;;
56770;SDS011;42641;59.794;17.616;2022-09-09T05:43:50;1.30;;;1.20;;
56770;SDS011;42641;59.794;17.616;2022-09-09T05:46:18;3.03;;;0.97;;
56770;SDS011;42641;59.794;17.616;2022-09-09T05:48:48;1.03;;;0.93;;
56770;SDS011;42641;59.794;17.616;2022-09-09T05:51:18;1.47;;;1.20;;
56770;SDS011;42641;59.794;17.616;2022-09-09T05:53:48;1.33;;;1.00;;
56770;SDS011;42641;59.794;17.616;2022-09-09T05:56:18;1.40;;;1.30;;
56770;SDS011;42641;59.794;17.616;2022-09-09T05:58:48;1.10;;;1.00;;
56770;SDS011;42641;59.794;17.616;2022-09-09T06:01:22;2.00;;;1.23;;
56770;SDS011;42641;59.794;17.616;2022-09-09T06:03:50;1.10;;;1.00;;
56770;SDS011;42641;59.794;17.616;2022-09-09T06:06:22;2.40;;;1.20;;
56770;SDS011;42641;59.794;17.616;2022-09-09T06:08:53;1.37;;;1.13;;
56770;SDS011;42641;59.794;17.616;2022-09-09T06:11:27;2.13;;;1.10;;
56770;SDS011;42641;59.794;17.616;2022-09-09T06:13:59;1.57;;;1.30;;
56770;SDS011;42641;59.794;17.616;2022-09-09T06:16:27;1.50;;;1.20;;
56770;SDS011;42641;59.794;17.616;2022-09-09T06:18:55;2.00;;;1.20;;
56770;SDS011;42641;59.794;17.616;2022-09-09T06:21:25;1.87;;;1.27;;
56770;SDS011;42641;59.794;17.616;2022-09-09T06:23:51;1.77;;;1.10;;
56770;SDS011;42641;59.794;17.616;2022-09-09T06:26:20;1.20;;;1.10;;
56770;SDS011;42641;59.794;17.616;2022-09-09T06:28:57;1.43;;;1.30;;
56770;SDS011;42641;59.794;17.616;2022-09-09T06:31:25;1.47;;;0.70;;
56770;SDS011;42641;59.794;17.616;2022-09-09T06:33:58;1.20;;;1.10;;
56770;SDS011;42641;59.794;17.616;2022-09-09T06:36:26;1.37;;;1.27;;
56770;SDS011;42641;59.794;17.616;2022-09-09T06:38:52;1.13;;;0.93;;
56770;SDS011;42641;59.794;17.616;2022-09-09T06:41:19;1.47;;;1.33;;
56770;SDS011;42641;59.794;17.616;2022-09-09T06:43:47;1.23;;;1.13;;
56770;SDS011;42641;59.794;17.616;2022-09-09T06:46:14;3.13;;;1.30;;
56770;SDS011;42641;59.794;17.616;2022-09-09T06:48:46;1.27;;;1.17;;
56770;SDS011;42641;59.794;17.616;2022-09-09T06:51:19;2.13;;;1.10;;
56770;SDS011;42641;59.794;17.616;2022-09-09T06:53:50;3.03;;;1.33;;
56770;SDS011;42641;59.794;17.616;2022-09-09T06:58:51;0.97;;;0.97;;
56770;SDS011;42641;59.794;17.616;2022-09-09T07:01:27;2.13;;;1.20;;
56770;SDS011;42641;59.794;17.616;2022-09-09T07:03:58;1.57;;;1.00;;
56770;SDS011;42641;59.794;17.616;2022-09-09T07:06:27;1.90;;;1.07;;
56770;SDS011;42641;59.794;17.616;2022-09-09T07:08:58;1.30;;;1.10;;
56770;SDS011;42641;59.794;17.616;2022-09-09T07:11:28;2.53;;;1.20;;
56770;SDS011;42641;59.794;17.616;2022-09-09T07:13:58;1.10;;;1.00;;
56770;SDS011;42641;59.794;17.616;2022-09-09T07:16:25;1.90;;;1.00;;
56770;SDS011;42641;59.794;17.616;2022-09-09T07:18:54;1.50;;;0.90;;
56770;SDS011;42641;59.794;17.616;2022-09-09T07:21:25;1.00;;;0.80;;
56770;SDS011;42641;59.794;17.616;2022-09-09T07:23:53;1.67;;;1.20;;
56770;SDS011;42641;59.794;17.616;2022-09-09T07:26:21;1.60;;;0.83;;
56770;SDS011;42641;59.794;17.616;2022-09-09T07:28:50;0.80;;;0.80;;
56770;SDS011;42641;59.794;17.616;2022-09-09T07:31:21;0.93;;;0.90;;
56770;SDS011;42641;59.794;17.616;2022-09-09T07:33:49;0.80;;;0.80;;
56770;SDS011;42641;59.794;17.616;2022-09-09T07:36:17;1.10;;;0.80;;
56770;SDS011;42641;59.794;17.616;2022-09-09T07:38:48;1.97;;;1.00;;
56770;SDS011;42641;59.794;17.616;2022-09-09T07:41:27;0.87;;;0.80;;
56770;SDS011;42641;59.794;17.616;2022-09-09T07:43:56;0.93;;;0.90;;
56770;SDS011;42641;59.794;17.616;2022-09-09T07:46:24;1.27;;;0.90;;
56770;SDS011;42641;59.794;17.616;2022-09-09T07:48:53;0.90;;;0.90;;
56770;SDS011;42641;59.794;17.616;2022-09-09T07:51:27;1.30;;;0.90;;
56770;SDS011;42641;59.794;17.616;2022-09-09T07:53:59;2.10;;;0.73;;
56770;SDS011;42641;59.794;17.616;2022-09-09T07:56:29;2.03;;;0.80;;
56770;SDS011;42641;59.794;17.616;2022-09-09T07:58:57;1.60;;;0.90;;
56770;SDS011;42641;59.794;17.616;2022-09-09T08:01:26;1.73;;;0.80;;
56770;SDS011;42641;59.794;17.616;2022-09-09T08:03:55;1.10;;;1.00;;
56770;SDS011;42641;59.794;17.616;2022-09-09T08:06:28;2.90;;;1.00;;
56770;SDS011;42641;59.794;17.616;2022-09-09T08:08:58;1.00;;;0.95;;
56770;SDS011;42641;59.794;17.616;2022-09-09T08:11:26;0.80;;;0.80;;
56770;SDS011;42641;59.794;17.616;2022-09-09T08:13:54;0.85;;;0.85;;
56770;SDS011;42641;59.794;17.616;2022-09-09T08:16:22;1.40;;;0.80;;
56770;SDS011;42641;59.794;17.616;2022-09-09T08:18:51;1.63;;;0.90;;
56770;SDS011;42641;59.794;17.616;2022-09-09T08:21:20;3.13;;;0.90;;
56770;SDS011;42641;59.794;17.616;2022-09-09T08:23:55;2.50;;;0.70;;
56770;SDS011;42641;59.794;17.616;2022-09-09T08:26:23;1.10;;;1.00;;
56770;SDS011;42641;59.794;17.616;2022-09-09T08:28:50;3.45;;;1.10;;
56770;SDS011;42641;59.794;17.616;2022-09-09T08:31:19;1.10;;;1.00;;
56770;SDS011;42641;59.794;17.616;2022-09-09T08:33:50;0.63;;;0.60;;
56770;SDS011;42641;59.794;17.616;2022-09-09T08:36:18;3.60;;;0.90;;
56770;SDS011;42641;59.794;17.616;2022-09-09T08:38:47;1.52;;;0.98;;
56770;SDS011;42641;59.794;17.616;2022-09-09T08:41:22;1.40;;;1.05;;
56770;SDS011;42641;59.794;17.616;2022-09-09T08:44:02;5.20;;;1.77;;
56770;SDS011;42641;59.794;17.616;2022-09-09T08:52:22;2.65;;;1.27;;
56770;SDS011;42641;59.794;17.616;2022-09-09T08:54:48;3.95;;;0.95;;
56770;SDS011;42641;59.794;17.616;2022-09-09T08:57:21;1.05;;;0.75;;
56770;SDS011;42641;59.794;17.616;2022-09-09T08:59:55;0.82;;;0.80;;
56770;SDS011;42641;59.794;17.616;2022-09-09T09:05:41;1.83;;;1.10;;
56770;SDS011;42641;59.794;17.616;2022-09-09T09:08:25;1.80;;;0.68;;
56770;SDS011;42641;59.794;17.616;2022-09-09T09:10:54;2.45;;;0.80;;
56770;SDS011;42641;59.794;17.616;2022-09-09T09:13:26;0.88;;;0.70;;
56770;SDS011;42641;59.794;17.616;2022-09-09T09:19:11;0.98;;;0.70;;
56770;SDS011;42641;59.794;17.616;2022-09-09T09:21:42;1.10;;;0.88;;
56770;SDS011;42641;59.794;17.616;2022-09-09T09:24:18;0.63;;;0.63;;
56770;SDS011;42641;59.794;17.616;2022-09-09T09:26:50;1.05;;;0.70;;
56770;SDS011;42641;59.794;17.616;2022-09-09T09:29:19;0.95;;;0.70;;
56770;SDS011;42641;59.794;17.616;2022-09-09T09:31:51;1.90;;;0.70;;
56770;SDS011;42641;59.794;17.616;2022-09-09T09:34:22;2.10;;;0.82;;
56770;SDS011;42641;59.794;17.616;2022-09-09T09:36:54;0.80;;;0.80;;
56770;SDS011;42641;59.794;17.616;2022-09-09T09:39:32;3.22;;;0.77;;
56770;SDS011;42641;59.794;17.616;2022-09-09T09:42:08;1.45;;;0.82;;
56770;SDS011;42641;59.794;17.616;2022-09-09T09:44:41;1.70;;;0.73;;
56770;SDS011;42641;59.794;17.616;2022-09-09T09:47:14;1.23;;;0.70;;
56770;SDS011;42641;59.794;17.616;2022-09-09T09:49:52;1.23;;;0.60;;
56770;SDS011;42641;59.794;17.616;2022-09-09T09:52:21;2.35;;;0.93;;
56770;SDS011;42641;59.794;17.616;2022-09-09T09:54:50;1.02;;;0.73;;
56770;SDS011;42641;59.794;17.616;2022-09-09T09:57:22;1.00;;;0.60;;
56770;SDS011;42641;59.794;17.616;2022-09-09T10:00:12;1.77;;;0.80;;
56770;SDS011;42641;59.794;17.616;2022-09-09T10:02:45;1.27;;;1.02;;
56770;SDS011;42641;59.794;17.616;2022-09-09T10:05:22;1.42;;;0.90;;
56770;SDS011;42641;59.794;17.616;2022-09-09T10:08:04;2.75;;;0.90;;
56770;SDS011;42641;59.794;17.616;2022-09-09T10:27:32;1.95;;;1.10;;
56770;SDS011;42641;59.794;17.616;2022-09-09T10:32:48;1.40;;;1.02;;
56770;SDS011;42641;59.794;17.616;2022-09-09T10:35:22;1.83;;;0.90;;
56770;SDS011;42641;59.794;17.616;2022-09-09T10:40:58;0.95;;;0.60;;
56770;SDS011;42641;59.794;17.616;2022-09-09T10:56:58;4.53;;;0.70;;
56770;SDS011;42641;59.794;17.616;2022-09-09T10:59:36;0.95;;;0.80;;
56770;SDS011;42641;59.794;17.616;2022-09-09T11:02:27;0.80;;;0.80;;
56770;SDS011;42641;59.794;17.616;2022-09-09T11:04:56;1.45;;;0.70;;
56770;SDS011;42641;59.794;17.616;2022-09-09T11:07:33;0.60;;;0.60;;
56770;SDS011;42641;59.794;17.616;2022-09-09T11:10:05;1.58;;;1.00;;
56770;SDS011;42641;59.794;17.616;2022-09-09T11:12:42;2.83;;;0.85;;
56770;SDS011;42641;59.794;17.616;2022-09-09T11:15:16;1.15;;;0.82;;
56770;SDS011;42641;59.794;17.616;2022-09-09T11:17:50;0.80;;;0.80;;
56770;SDS011;42641;59.794;17.616;2022-09-09T11:20:22;2.55;;;1.55;;
56770;SDS011;42641;59.794;17.616;2022-09-09T11:22:52;0.70;;;0.70;;
56770;SDS011;42641;59.794;17.616;2022-09-09T11:25:29;1.30;;;0.85;;
56770;SDS011;42641;59.794;17.616;2022-09-09T11:44:51;0.93;;;0.68;;
56770;SDS011;42641;59.794;17.616;2022-09-09T11:47:31;0.90;;;0.75;;
56770;SDS011;42641;59.794;17.616;2022-09-09T11:50:22;0.80;;;0.70;;
56770;SDS011;42641;59.794;17.616;2022-09-09T11:55:59;1.75;;;0.93;;
56770;SDS011;42641;59.794;17.616;2022-09-09T11:58:29;0.75;;;0.73;;
56770;SDS011;42641;59.794;17.616;2022-09-09T12:01:02;1.98;;;0.77;;
56770;SDS011;42641;59.794;17.616;2022-09-09T12:03:55;1.33;;;0.80;;
56770;SDS011;42641;59.794;17.616;2022-09-09T12:06:45;1.48;;;1.08;;
56770;SDS011;42641;59.794;17.616;2022-09-09T12:09:25;0.85;;;0.80;;
56770;SDS011;42641;59.794;17.616;2022-09-09T12:11:53;1.02;;;0.80;;
56770;SDS011;42641;59.794;17.616;2022-09-09T12:17:37;1.77;;;0.88;;
56770;SDS011;42641;59.794;17.616;2022-09-09T12:25:26;0.85;;;0.68;;
56770;SDS011;42641;59.794;17.616;2022-09-09T12:31:04;1.67;;;0.93;;
56770;SDS011;42641;59.794;17.616;2022-09-09T12:33:22;1.05;;;0.80;;
56770;SDS011;42641;59.794;17.616;2022-09-09T12:35:54;0.73;;;0.73;;
56770;SDS011;42641;59.794;17.616;2022-09-09T12:38:26;0.80;;;0.73;;
56770;SDS011;42641;59.794;17.616;2022-09-09T12:41:06;1.25;;;0.70;;
56770;SDS011;42641;59.794;17.616;2022-09-09T12:43:45;1.05;;;0.75;;
56770;SDS011;42641;59.794;17.616;2022-09-09T12:46:22;2.08;;;0.98;;
56770;SDS011;42641;59.794;17.616;2022-09-09T12:51:54;1.00;;;0.70;;
56770;SDS011;42641;59.794;17.616;2022-09-09T12:54:23;0.88;;;0.80;;
56770;SDS011;42641;59.794;17.616;2022-09-09T12:56:49;0.65;;;0.60;;
56770;SDS011;42641;59.794;17.616;2022-09-09T12:59:26;0.52;;;0.50;;
56770;SDS011;42641;59.794;17.616;2022-09-09T13:02:00;1.25;;;0.90;;
56770;SDS011;42641;59.794;17.616;2022-09-09T13:04:27;1.30;;;1.00;;
56770;SDS011;42641;59.794;17.616;2022-09-09T13:06:53;1.02;;;0.57;;
56770;SDS011;42641;59.794;17.616;2022-09-09T13:09:30;1.30;;;0.80;;
56770;SDS011;42641;59.794;17.616;2022-09-09T13:11:57;2.00;;;0.93;;
56770;SDS011;42641;59.794;17.616;2022-09-09T13:14:34;1.45;;;0.80;;
56770;SDS011;42641;59.794;17.616;2022-09-09T13:17:03;2.25;;;1.05;;
56770;SDS011;42641;59.794;17.616;2022-09-09T13:19:33;1.42;;;0.80;;
56770;SDS011;42641;59.794;17.616;2022-09-09T13:25:13;0.88;;;0.88;;
56770;SDS011;42641;59.794;17.616;2022-09-09T13:27:52;0.63;;;0.60;;
56770;SDS011;42641;59.794;17.616;2022-09-09T13:30:29;1.73;;;0.85;;
56770;SDS011;42641;59.794;17.616;2022-09-09T13:35:35;1.42;;;0.82;;
56770;SDS011;42641;59.794;17.616;2022-09-09T13:38:15;0.80;;;0.80;;
56770;SDS011;42641;59.794;17.616;2022-09-09T13:40:52;0.80;;;0.80;;
56770;SDS011;42641;59.794;17.616;2022-09-09T13:43:25;2.50;;;1.20;;
56770;SDS011;42641;59.794;17.616;2022-09-09T13:45:53;1.70;;;1.08;;
56770;SDS011;42641;59.794;17.616;2022-09-09T13:48:22;1.10;;;1.00;;
56770;SDS011;42641;59.794;17.616;2022-09-09T13:50:59;1.90;;;0.80;;
56770;SDS011;42641;59.794;17.616;2022-09-09T13:53:32;1.40;;;1.02;;
56770;SDS011;42641;59.794;17.616;2022-09-09T13:55:58;0.73;;;0.73;;
56770;SDS011;42641;59.794;17.616;2022-09-09T13:58:25;2.00;;;0.90;;
56770;SDS011;42641;59.794;17.616;2022-09-09T14:00:52;1.33;;;1.10;;
56770;SDS011;42641;59.794;17.616;2022-09-09T14:03:19;1.75;;;0.90;;
56770;SDS011;42641;59.794;17.616;2022-09-09T14:05:45;4.97;;;1.10;;
56770;SDS011;42641;59.794;17.616;2022-09-09T14:08:15;0.70;;;0.70;;
56770;SDS011;42641;59.794;17.616;2022-09-09T14:10:47;1.25;;;0.95;;
56770;SDS011;42641;59.794;17.616;2022-09-09T14:13:13;0.90;;;0.77;;
56770;SDS011;42641;59.794;17.616;2022-09-09T14:15:41;1.23;;;1.10;;
56770;SDS011;42641;59.794;17.616;2022-09-09T14:18:09;1.70;;;1.10;;
56770;SDS011;42641;59.794;17.616;2022-09-09T14:20:37;2.35;;;1.10;;
56770;SDS011;42641;59.794;17.616;2022-09-09T14:23:03;2.85;;;1.00;;
56770;SDS011;42641;59.794;17.616;2022-09-09T14:25:30;1.20;;;1.10;;
56770;SDS011;42641;59.794;17.616;2022-09-09T14:27:57;1.38;;;1.27;;
56770;SDS011;42641;59.794;17.616;2022-09-09T14:30:23;0.90;;;0.90;;
56770;SDS011;42641;59.794;17.616;2022-09-09T14:32:49;0.95;;;0.80;;
56770;SDS011;42641;59.794;17.616;2022-09-09T14:35:16;0.90;;;0.90;;
56770;SDS011;42641;59.794;17.616;2022-09-09T14:37:43;0.80;;;0.80;;
56770;SDS011;42641;59.794;17.616;2022-09-09T14:40:10;2.05;;;1.00;;
56770;SDS011;42641;59.794;17.616;2022-09-09T14:42:36;1.10;;;1.00;;
56770;SDS011;42641;59.794;17.616;2022-09-09T14:45:03;1.00;;;0.85;;
56770;SDS011;42641;59.794;17.616;2022-09-09T14:47:30;2.05;;;1.10;;
56770;SDS011;42641;59.794;17.616;2022-09-09T14:49:56;1.17;;;0.90;;
56770;SDS011;42641;59.794;17.616;2022-09-09T14:52:22;1.15;;;0.98;;
56770;SDS011;42641;59.794;17.616;2022-09-09T14:54:49;2.30;;;1.08;;
56770;SDS011;42641;59.794;17.616;2022-09-09T14:57:15;1.00;;;0.98;;
56770;SDS011;42641;59.794;17.616;2022-09-09T14:59:41;2.72;;;1.15;;
56770;SDS011;42641;59.794;17.616;2022-09-09T15:02:08;1.00;;;0.90;;
56770;SDS011;42641;59.794;17.616;2022-09-09T15:04:34;1.38;;;1.10;;
56770;SDS011;42641;59.794;17.616;2022-09-09T15:07:01;0.93;;;0.93;;
56770;SDS011;42641;59.794;17.616;2022-09-09T15:09:28;2.50;;;1.10;;
56770;SDS011;42641;59.794;17.616;2022-09-09T15:11:54;0.90;;;0.90;;
56770;SDS011;42641;59.794;17.616;2022-09-09T15:14:21;1.30;;;1.00;;
56770;SDS011;42641;59.794;17.616;2022-09-09T15:16:47;1.45;;;1.10;;
56770;SDS011;42641;59.794;17.616;2022-09-09T15:19:13;0.98;;;0.90;;
56770;SDS011;42641;59.794;17.616;2022-09-09T15:21:40;1.65;;;1.10;;
56770;SDS011;42641;59.794;17.616;2022-09-09T15:24:06;1.30;;;1.13;;
56770;SDS011;42641;59.794;17.616;2022-09-09T15:26:34;1.58;;;1.10;;
56770;SDS011;42641;59.794;17.616;2022-09-09T15:29:04;1.15;;;0.93;;
56770;SDS011;42641;59.794;17.616;2022-09-09T15:31:30;1.10;;;0.95;;
56770;SDS011;42641;59.794;17.616;2022-09-09T15:33:58;1.00;;;1.00;;
56770;SDS011;42641;59.794;17.616;2022-09-09T15:36:37;1.85;;;1.00;;
56770;SDS011;42641;59.794;17.616;2022-09-09T15:39:06;2.47;;;1.10;;
56770;SDS011;42641;59.794;17.616;2022-09-09T15:41:35;0.90;;;0.90;;
56770;SDS011;42641;59.794;17.616;2022-09-09T15:44:01;1.10;;;1.00;;
56770;SDS011;42641;59.794;17.616;2022-09-09T15:49:13;1.10;;;1.00;;
56770;SDS011;42641;59.794;17.616;2022-09-09T15:51:45;1.50;;;1.00;;
56770;SDS011;42641;59.794;17.616;2022-09-09T15:54:16;1.57;;;1.20;;
56770;SDS011;42641;59.794;17.616;2022-09-09T15:56:44;2.27;;;1.10;;
56770;SDS011;42641;59.794;17.616;2022-09-09T15:59:14;3.27;;;1.00;;
56770;SDS011;42641;59.794;17.616;2022-09-09T16:01:40;0.93;;;0.93;;
56770;SDS011;42641;59.794;17.616;2022-09-09T16:04:07;1.67;;;1.20;;
56770;SDS011;42641;59.794;17.616;2022-09-09T16:06:34;1.95;;;1.27;;
56770;SDS011;42641;59.794;17.616;2022-09-09T16:09:02;1.40;;;1.20;;
56770;SDS011;42641;59.794;17.616;2022-09-09T16:11:31;1.77;;;1.20;;
56770;SDS011;42641;59.794;17.616;2022-09-09T16:14:00;1.60;;;1.20;;
56770;SDS011;42641;59.794;17.616;2022-09-09T16:16:28;1.73;;;1.20;;
56770;SDS011;42641;59.794;17.616;2022-09-09T16:18:59;2.42;;;1.20;;
56770;SDS011;42641;59.794;17.616;2022-09-09T16:21:29;1.40;;;1.10;;
56770;SDS011;42641;59.794;17.616;2022-09-09T16:23:58;1.73;;;1.20;;
56770;SDS011;42641;59.794;17.616;2022-09-09T16:26:26;2.37;;;1.20;;
56770;SDS011;42641;59.794;17.616;2022-09-09T16:28:53;1.67;;;0.97;;
56770;SDS011;42641;59.794;17.616;2022-09-09T16:31:24;1.83;;;1.20;;
56770;SDS011;42641;59.794;17.616;2022-09-09T16:33:53;2.10;;;1.20;;
56770;SDS011;42641;59.794;17.616;2022-09-09T16:36:24;2.77;;;1.30;;
56770;SDS011;42641;59.794;17.616;2022-09-09T16:38:56;1.40;;;1.00;;
56770;SDS011;42641;59.794;17.616;2022-09-09T16:41:25;1.33;;;1.00;;
56770;SDS011;42641;59.794;17.616;2022-09-09T16:43:54;1.63;;;1.20;;
56770;SDS011;42641;59.794;17.616;2022-09-09T16:46:21;2.03;;;1.30;;
56770;SDS011;42641;59.794;17.616;2022-09-09T16:48:49;1.30;;;1.20;;
56770;SDS011;42641;59.794;17.616;2022-09-09T16:51:24;2.47;;;1.20;;
56770;SDS011;42641;59.794;17.616;2022-09-09T16:53:53;1.17;;;1.10;;
56770;SDS011;42641;59.794;17.616;2022-09-09T16:56:25;2.43;;;1.20;;
56770;SDS011;42641;59.794;17.616;2022-09-09T16:58:53;1.20;;;1.10;;
56770;SDS011;42641;59.794;17.616;2022-09-09T17:01:24;1.23;;;1.13;;
56770;SDS011;42641;59.794;17.616;2022-09-09T17:03:55;2.67;;;1.30;;
56770;SDS011;42641;59.794;17.616;2022-09-09T17:06:26;1.40;;;1.20;;
56770;SDS011;42641;59.794;17.616;2022-09-09T17:08:58;1.87;;;1.07;;
56770;SDS011;42641;59.794;17.616;2022-09-09T17:11:27;1.87;;;1.30;;
56770;SDS011;42641;59.794;17.616;2022-09-09T17:13:55;2.37;;;1.40;;
56770;SDS011;42641;59.794;17.616;2022-09-09T17:16:24;1.80;;;1.17;;
56770;SDS011;42641;59.794;17.616;2022-09-09T17:18:55;1.83;;;1.27;;